Time;durP1;ratioP1;P1;durP2;ratioP2;P2;SDS_P1;SDS_P2;PMS_P1;PMS_P2;Temp;Humidity;BMP_temperature;BMP_pressure;BME280_temperature;BME280_humidity;BME280_pressure;Samples;Min_cycle;Max_cycle;Signal;HPM_P1;HPM_P2
2021/07/21 00:00:56;;;;;;;11.97;7.87;;;;;;;20.74;89.17;99776.35;1754977;77;21362;-58
2021/07/21 00:04:01;;;;;;;12.07;8.55;;;;;;;20.61;88.81;99773.96;1757035;78;21528;-58
2021/07/21 00:07:08;;;;;;;11.95;9.15;;;;;;;20.54;88.93;99778.31;1757980;78;21346;-57
2021/07/21 00:10:17;;;;;;;16.80;8.88;;;;;;;20.48;89.22;99779.34;1749886;79;21797;-59
2021/07/21 00:13:32;;;;;;;12.98;8.48;;;;;;;20.51;89.88;99773.27;1739998;78;21390;-59
2021/07/21 00:16:39;;;;;;;14.13;9.20;;;;;;;20.55;90.06;99771.64;1755321;79;21236;-58
2021/07/21 00:23:11;;;;;;;12.43;8.25;;;;;;;20.51;89.78;99769.09;1764966;80;21875;-58
2021/07/21 00:26:17;;;;;;;10.98;8.18;;;;;;;20.45;89.85;99763.16;1753242;78;21228;-57
2021/07/21 00:29:23;;;;;;;17.00;8.73;;;;;;;20.44;90.12;99755.90;1764902;78;21231;-59
2021/07/21 00:32:28;;;;;;;13.75;7.95;;;;;;;20.47;90.54;99750.39;1757254;78;21239;-58
2021/07/21 00:35:34;;;;;;;9.78;8.25;;;;;;;20.43;90.37;99761.17;1723699;80;21274;-58
2021/07/21 00:38:40;;;;;;;16.15;8.35;;;;;;;20.43;90.85;99754.77;1765201;78;21358;-59
2021/07/21 00:41:46;;;;;;;11.63;8.60;;;;;;;20.41;90.87;99752.23;1758565;79;21382;-59
2021/07/21 00:44:54;;;;;;;12.37;7.90;;;;;;;20.46;91.34;99762.59;1757581;78;21378;-59
2021/07/21 00:48:00;;;;;;;12.55;8.63;;;;;;;20.49;91.26;99750.95;1761600;78;21196;-59
2021/07/21 00:51:05;;;;;;;9.20;8.10;;;;;;;20.49;91.04;99762.08;1733512;78;21267;-59
2021/07/21 00:54:11;;;;;;;13.10;8.05;;;;;;;20.46;90.92;99741.73;1749826;77;21239;-58
2021/07/21 00:57:17;;;;;;;15.53;8.95;;;;;;;20.43;90.80;99736.69;1755928;77;21421;-58
2021/07/21 01:00:25;;;;;;;11.83;8.68;;;;;;;20.42;91.20;99740.58;1764404;80;21229;-59
2021/07/21 01:03:31;;;;;;;14.10;8.68;;;;;;;20.41;91.25;99734.70;1752952;78;21317;-57
2021/07/21 01:06:37;;;;;;;13.32;8.80;;;;;;;20.41;91.27;99747.22;1750828;77;21285;-58
2021/07/21 01:09:44;;;;;;;12.55;8.38;;;;;;;20.43;91.38;99731.12;1753141;78;21602;-58
2021/07/21 01:13:16;;;;;;;10.63;8.50;;;;;;;20.45;91.50;99744.23;1731051;80;21386;-58
2021/07/21 01:16:27;;;;;;;11.93;8.98;;;;;;;20.47;91.57;99754.56;1753304;78;21444;-58
2021/07/21 01:19:55;;;;;;;12.95;9.30;;;;;;;20.50;91.52;99759.61;1752735;78;21852;-58
2021/07/21 01:23:11;;;;;;;12.43;9.30;;;;;;;20.51;91.48;99745.98;1751075;79;21989;-57
2021/07/21 01:26:22;;;;;;;11.00;8.98;;;;;;;20.53;91.44;99744.63;1741665;79;21221;-58
2021/07/21 01:29:28;;;;;;;11.90;9.08;;;;;;;20.56;91.57;99734.95;1744601;79;21243;-58
2021/07/21 01:32:36;;;;;;;10.90;9.20;;;;;;;20.61;91.92;99732.23;1735711;80;21271;-58
2021/07/21 01:35:48;;;;;;;15.65;9.13;;;;;;;20.66;91.76;99722.58;1743208;79;21236;-59
2021/07/21 01:39:03;;;;;;;15.63;9.35;;;;;;;20.65;91.46;99714.78;1762789;79;21768;-59
2021/07/21 01:42:14;;;;;;;11.68;8.63;;;;;;;20.69;91.48;99712.33;1757341;79;21299;-58
2021/07/21 01:45:20;;;;;;;10.93;8.20;;;;;;;20.71;91.39;99717.06;1755857;79;21422;-59
2021/07/21 01:48:26;;;;;;;10.82;8.18;;;;;;;20.68;91.09;99700.89;1754359;79;21250;-59
2021/07/21 01:51:31;;;;;;;11.33;7.70;;;;;;;20.70;91.18;99697.31;1708930;81;21422;-58
2021/07/21 01:54:39;;;;;;;12.73;9.33;;;;;;;20.70;91.10;99701.48;1767341;79;21397;-58
2021/07/21 01:57:44;;;;;;;12.15;8.65;;;;;;;20.67;90.76;99693.11;1748469;78;21236;-61
2021/07/21 02:01:07;;;;;;;11.18;8.00;;;;;;;20.65;90.47;99685.57;1764041;78;21220;-59
2021/07/21 02:04:13;;;;;;;12.40;8.63;;;;;;;20.56;90.15;99692.69;1762294;79;21271;-58
2021/07/21 02:07:19;;;;;;;11.70;8.53;;;;;;;20.55;90.32;99701.29;1741593;78;21245;-59
2021/07/21 02:10:28;;;;;;;11.25;9.00;;;;;;;20.50;90.12;99702.61;1765003;79;21919;-58
2021/07/21 02:13:45;;;;;;;13.32;9.65;;;;;;;20.43;89.96;99700.00;1761508;79;21547;-58
2021/07/21 02:16:58;;;;;;;11.60;9.58;;;;;;;20.41;90.21;99707.75;1763907;79;21232;-58
2021/07/21 02:20:06;;;;;;;12.73;8.43;;;;;;;20.43;90.44;99698.61;1757574;80;21220;-58
2021/07/21 02:23:16;;;;;;;13.43;9.53;;;;;;;20.42;90.20;99702.47;1699756;81;21354;-58
2021/07/21 02:26:45;;;;;;;12.58;9.73;;;;;;;20.44;90.50;99709.16;1740066;79;21211;-58
2021/07/21 02:29:51;;;;;;;13.83;9.48;;;;;;;20.49;90.45;99718.44;1758755;80;21208;-58
2021/07/21 02:33:23;;;;;;;14.87;10.25;;;;;;;20.55;90.69;99722.97;1744763;78;21919;-58
2021/07/21 02:36:29;;;;;;;15.35;11.43;;;;;;;20.61;90.66;99720.55;1751246;77;21598;-58
2021/07/21 02:39:35;;;;;;;14.60;10.93;;;;;;;20.69;90.84;99723.45;1760391;79;21350;-58
2021/07/21 02:42:42;;;;;;;14.50;11.03;;;;;;;20.77;90.88;99736.92;1733468;79;21821;-59
2021/07/21 02:45:48;;;;;;;13.13;10.58;;;;;;;20.85;90.67;99746.75;1716115;79;21764;-59
2021/07/21 02:48:54;;;;;;;14.75;11.38;;;;;;;20.87;90.11;99759.30;1758877;79;21235;-59
2021/07/21 02:52:08;;;;;;;13.50;10.88;;;;;;;20.90;89.73;99767.13;1734175;79;21279;-59
2021/07/21 02:55:29;;;;;;;15.78;11.10;;;;;;;20.93;89.50;99787.48;1725167;81;21377;-58
2021/07/21 02:59:01;;;;;;;14.53;11.68;;;;;;;20.96;89.59;99814.85;1759619;78;21235;-61
2021/07/21 03:02:07;;;;;;;17.32;12.37;;;;;;;21.02;89.46;99839.41;1747339;78;21296;-60
2021/07/21 03:05:22;;;;;;;12.78;9.15;;;;;;;21.04;89.14;99867.27;1709858;81;21757;-60
2021/07/21 03:08:31;;;;;;;12.20;10.13;;;;;;;21.03;88.88;99923.19;1698092;80;21262;-58
2021/07/21 03:11:38;;;;;;;15.03;9.95;;;;;;;20.98;88.40;99817.37;1748665;78;21208;-58
2021/07/21 03:14:44;;;;;;;12.53;9.33;;;;;;;20.95;88.40;99808.94;1765779;79;21315;-58
2021/07/21 03:17:53;;;;;;;14.30;9.60;;;;;;;21.00;88.55;99844.38;1760772;78;21201;-59
2021/07/21 03:21:02;;;;;;;12.45;8.93;;;;;;;21.04;88.41;99850.56;1762966;80;21299;-60
2021/07/21 03:24:09;;;;;;;12.80;9.45;;;;;;;21.07;88.03;99805.55;1727044;80;21219;-59
2021/07/21 03:27:20;;;;;;;10.58;8.85;;;;;;;21.09;87.82;99821.98;1723836;79;21847;-59
2021/07/21 03:30:34;;;;;;;12.20;8.13;;;;;;;21.11;87.56;99812.27;1762815;79;21528;-61
2021/07/21 03:33:40;;;;;;;11.50;8.38;;;;;;;21.13;87.42;99792.52;1742195;80;21341;-60
2021/07/21 03:36:49;;;;;;;12.18;9.05;;;;;;;21.11;87.31;99805.84;1760882;79;21272;-58
2021/07/21 03:40:13;;;;;;;13.88;8.90;;;;;;;21.10;87.04;99760.48;1762182;78;21243;-61
2021/07/21 03:43:38;;;;;;;12.10;9.18;;;;;;;21.09;86.94;99792.77;1756319;80;21223;-58
2021/07/21 03:46:46;;;;;;;13.32;9.38;;;;;;;21.14;87.23;99791.41;1742504;79;21181;-59
2021/07/21 03:49:54;;;;;;;12.47;9.55;;;;;;;21.18;86.95;99772.56;1752747;79;21212;-59
2021/07/21 03:53:01;;;;;;;10.38;9.00;;;;;;;21.18;86.41;99771.17;1766074;78;21860;-58
2021/07/21 03:56:09;;;;;;;11.08;9.68;;;;;;;21.15;86.37;99766.66;1769501;78;21361;-58
2021/07/21 03:59:19;;;;;;;15.50;10.05;;;;;;;21.12;86.53;99762.44;1744964;78;21831;-58
2021/07/21 04:02:24;;;;;;;13.45;10.00;;;;;;;21.15;86.70;99754.98;1741266;78;21228;-59
2021/07/21 04:05:31;;;;;;;19.27;10.65;;;;;;;21.19;87.09;99745.00;1755267;79;21366;-60
2021/07/21 04:08:38;;;;;;;15.48;10.98;;;;;;;21.22;86.91;99731.95;1727484;78;21860;-59
2021/07/21 04:11:47;;;;;;;14.63;9.98;;;;;;;21.22;86.78;99737.52;1753659;78;21358;-60
2021/07/21 04:14:56;;;;;;;14.70;11.12;;;;;;;21.18;86.70;99725.23;1757690;79;21239;-60
2021/07/21 04:18:04;;;;;;;16.30;10.95;;;;;;;21.13;86.50;99711.25;1719421;79;22037;-59
2021/07/21 04:21:15;;;;;;;12.85;10.60;;;;;;;21.11;86.69;99704.25;1694554;80;21260;-59
2021/07/21 04:24:21;;;;;;;14.30;10.40;;;;;;;21.09;86.65;99710.65;1681634;82;21712;-58
2021/07/21 04:27:26;;;;;;;16.85;11.18;;;;;;;21.05;86.43;99715.88;1738541;77;21852;-61
2021/07/21 04:30:38;;;;;;;15.60;11.10;;;;;;;21.06;86.53;99731.47;1747754;79;21300;-59
2021/07/21 04:33:45;;;;;;;13.18;11.48;;;;;;;21.03;86.34;99731.99;1758189;79;21382;-60
2021/07/21 04:36:52;;;;;;;17.20;11.78;;;;;;;21.06;86.68;99740.39;1748376;78;21282;-61
2021/07/21 04:40:18;;;;;;;18.90;12.85;;;;;;;21.09;86.60;99750.44;1658285;83;21494;-60
2021/07/21 04:43:28;;;;;;;13.85;12.00;;;;;;;21.16;86.75;99758.59;1751370;78;21282;-59
2021/07/21 04:46:34;;;;;;;17.77;14.13;;;;;;;21.25;86.67;99770.41;1728630;79;22070;-60
2021/07/21 04:49:44;;;;;;;15.90;13.20;;;;;;;21.34;86.44;99756.34;1762082;80;21205;-60
2021/07/21 04:52:51;;;;;;;18.90;14.07;;;;;;;21.42;86.07;99757.23;1692665;81;21779;-60
2021/07/21 04:55:57;;;;;;;17.45;13.65;;;;;;;21.51;85.92;99764.59;1701804;80;21220;-61
2021/07/21 04:59:03;;;;;;;17.73;13.68;;;;;;;21.60;85.99;99784.75;1705200;80;21232;-60
2021/07/21 05:02:10;;;;;;;14.93;12.23;;;;;;;21.75;86.04;99794.71;1767424;79;21315;-60
2021/07/21 05:05:21;;;;;;;17.90;13.35;;;;;;;21.84;85.29;99797.30;1747041;79;21275;-60
2021/07/21 05:08:26;;;;;;;16.23;13.88;;;;;;;21.99;85.42;99833.68;1763737;78;21781;-61
2021/07/21 05:11:36;;;;;;;16.70;14.90;;;;;;;22.21;85.13;99844.22;1732585;79;21212;-59
2021/07/21 05:14:41;;;;;;;18.35;14.83;;;;;;;22.41;84.20;99836.59;1759603;78;21271;-60
2021/07/21 05:18:00;;;;;;;15.32;13.45;;;;;;;22.53;83.20;99837.30;1789317;78;21244;-59
2021/07/21 05:21:10;;;;;;;17.05;14.93;;;;;;;22.74;82.34;99849.47;1736603;80;21785;-58
2021/07/21 05:24:17;;;;;;;16.25;14.65;;;;;;;22.90;81.29;99826.95;1792705;76;21228;-57
2021/07/21 05:27:23;;;;;;;15.23;13.50;;;;;;;23.00;80.02;99821.98;1762027;79;21329;-59
2021/07/21 05:30:29;;;;;;;16.80;13.85;;;;;;;23.04;79.66;99828.16;1757927;77;21390;-58
2021/07/21 05:33:35;;;;;;;15.35;13.65;;;;;;;23.11;79.11;99842.73;1751951;79;21290;-58
2021/07/21 05:36:41;;;;;;;15.03;13.10;;;;;;;23.17;78.47;99838.84;1742611;79;21227;-58
2021/07/21 05:39:47;;;;;;;16.48;13.22;;;;;;;23.25;78.59;99823.52;1747636;79;21567;-58
2021/07/21 05:42:59;;;;;;;15.93;12.33;;;;;;;23.23;77.49;99839.16;1724892;79;21280;-58
2021/07/21 05:46:07;;;;;;;14.35;11.90;;;;;;;23.30;77.58;99829.17;1742993;80;21792;-58
2021/07/21 05:49:12;;;;;;;15.80;12.00;;;;;;;23.32;76.61;99824.16;1734594;79;21232;-58
2021/07/21 05:52:31;;;;;;;16.45;13.30;;;;;;;23.29;76.16;99823.31;1747681;79;21198;-58
2021/07/21 05:55:38;;;;;;;17.40;13.40;;;;;;;23.31;76.75;99821.06;1751513;76;21222;-58
2021/07/21 05:58:46;;;;;;;13.88;12.45;;;;;;;23.34;76.51;99826.13;1747621;78;21394;-58
2021/07/21 06:01:55;;;;;;;17.40;11.97;;;;;;;23.38;76.15;99816.93;1770851;78;21201;-59
2021/07/21 06:05:03;;;;;;;14.53;12.03;;;;;;;23.42;75.78;99807.45;1783313;79;21857;-59
2021/07/21 06:08:28;;;;;;;14.55;11.90;;;;;;;23.46;75.91;99795.45;1772815;78;21193;-59
2021/07/21 06:11:41;;;;;;;13.70;12.00;;;;;;;23.51;75.26;99803.00;1744928;77;21370;-59
2021/07/21 06:14:46;;;;;;;14.98;12.65;;;;;;;23.58;74.78;99800.77;1760975;76;21216;-60
2021/07/21 06:17:53;;;;;;;15.58;13.98;;;;;;;23.68;75.39;99799.42;1738372;79;21235;-58
2021/07/21 06:21:11;;;;;;;17.32;13.62;;;;;;;23.67;75.01;99782.92;1790614;77;21338;-57
2021/07/21 06:24:32;;;;;;;16.02;14.23;;;;;;;23.71;75.64;99781.25;1780286;77;21232;-60
2021/07/21 06:27:41;;;;;;;18.02;15.32;;;;;;;23.77;75.75;99782.38;1773078;76;21789;-58
2021/07/21 06:30:49;;;;;;;19.15;15.10;;;;;;;23.80;74.79;99793.02;1787170;77;21295;-58
2021/07/21 06:33:59;;;;;;;18.27;16.02;;;;;;;23.79;75.04;99794.14;1785270;78;21246;-58
2021/07/21 06:37:16;;;;;;;18.10;15.23;;;;;;;23.68;75.14;99808.36;1779521;76;22079;-59
2021/07/21 06:40:25;;;;;;;17.73;14.03;;;;;;;23.63;75.27;99798.00;1765385;78;21281;-60
2021/07/21 06:43:33;;;;;;;15.90;13.08;;;;;;;23.61;75.76;99789.89;1789736;76;21265;-59
2021/07/21 06:46:53;;;;;;;15.50;13.13;;;;;;;23.61;76.40;99789.05;1783005;78;21275;-61
2021/07/21 06:49:51;;;;;;;17.02;12.60;;;;;;;23.73;76.51;99799.44;1691538;78;21785;-60
2021/07/21 06:52:58;;;;;;;18.35;13.30;;;;;;;23.85;76.10;99795.82;1669234;80;21247;-59
2021/07/21 06:56:22;;;;;;;15.30;13.68;;;;;;;23.95;76.27;99804.79;1655339;80;22126;-59
2021/07/21 06:59:46;;;;;;;16.37;12.60;;;;;;;24.12;75.89;99802.05;1658841;80;21332;-58
2021/07/21 07:02:56;;;;;;;19.00;12.33;;;;;;;24.30;75.33;99802.07;1654995;81;21282;-59
2021/07/21 07:06:11;;;;;;;12.35;11.00;;;;;;;24.44;74.68;99801.78;1654210;80;21736;-58
2021/07/21 07:09:35;;;;;;;13.43;11.05;;;;;;;24.60;73.53;99794.52;1634616;80;21610;-58
2021/07/21 07:12:42;;;;;;;13.40;9.63;;;;;;;24.83;72.23;99795.34;1646894;80;21252;-58
2021/07/21 07:15:51;;;;;;;11.35;10.03;;;;;;;25.08;70.63;99789.41;1651499;81;21766;-58
2021/07/21 07:18:58;;;;;;;11.30;10.10;;;;;;;25.26;69.31;99791.59;1652541;80;21232;-58
2021/07/21 07:22:04;;;;;;;13.50;10.25;;;;;;;25.35;69.00;99793.55;1662385;80;21291;-58
2021/07/21 07:25:12;;;;;;;11.70;10.45;;;;;;;25.37;67.69;99795.48;1661402;79;21216;-58
2021/07/21 07:28:18;;;;;;;12.23;10.43;;;;;;;25.38;67.58;99793.53;1630213;80;21241;-58
2021/07/21 07:31:24;;;;;;;13.88;10.68;;;;;;;25.41;67.42;99788.75;1663609;81;21284;-57
2021/07/21 07:34:28;;;;;;;11.68;10.48;;;;;;;25.39;66.74;99782.58;1669347;81;21646;-58
2021/07/21 07:37:34;;;;;;;13.25;11.28;;;;;;;25.43;67.33;99783.70;1669665;79;21451;-59
2021/07/21 07:40:42;;;;;;;13.65;11.12;;;;;;;25.50;67.23;99781.44;1667322;79;21319;-58
2021/07/21 07:43:50;;;;;;;14.18;11.68;;;;;;;25.57;66.43;99779.14;1669309;79;21291;-57
2021/07/21 07:46:56;;;;;;;14.23;12.73;;;;;;;25.66;66.59;99782.45;1672329;79;21235;-59
2021/07/21 07:50:04;;;;;;;13.72;11.57;;;;;;;25.82;66.96;99780.39;1654897;79;21232;-59
2021/07/21 07:53:13;;;;;;;12.58;11.28;;;;;;;26.02;66.62;99776.11;1641391;80;21262;-58
2021/07/21 07:56:21;;;;;;;13.95;11.43;;;;;;;26.17;65.74;99778.23;1668135;80;22161;-58
2021/07/21 07:59:28;;;;;;;12.78;11.08;;;;;;;26.18;64.71;99776.23;1640104;81;21246;-59
2021/07/21 08:02:33;;;;;;;14.98;11.43;;;;;;;26.18;64.60;99779.89;1650343;80;21267;-58
2021/07/21 08:05:39;;;;;;;14.40;11.80;;;;;;;26.29;64.54;99781.49;1648648;82;21212;-58
2021/07/21 08:08:52;;;;;;;13.25;11.93;;;;;;;26.38;63.93;99780.31;1669100;80;21247;-58
2021/07/21 08:12:11;;;;;;;13.80;11.38;;;;;;;26.38;63.63;99771.89;1618719;80;21781;-58
2021/07/21 08:15:20;;;;;;;12.88;10.98;;;;;;;26.41;64.03;99769.89;1637017;81;21796;-59
2021/07/21 08:18:25;;;;;;;13.60;11.90;;;;;;;26.50;63.72;99765.31;1665794;81;21300;-60
2021/07/21 08:21:31;;;;;;;13.40;12.00;;;;;;;26.60;64.07;99752.59;1669486;79;21872;-58
2021/07/21 08:24:41;;;;;;;16.07;12.28;;;;;;;26.67;63.61;99746.07;1664137;80;21805;-59
2021/07/21 08:27:46;;;;;;;14.30;11.00;;;;;;;26.75;63.47;99748.83;1671712;79;21247;-55
2021/07/21 08:30:58;;;;;;;12.88;11.28;;;;;;;26.83;63.65;99743.97;1661554;79;21299;-54
2021/07/21 08:34:10;;;;;;;13.65;11.25;;;;;;;26.92;62.83;99750.04;1639306;80;21291;-56
2021/07/21 08:37:21;;;;;;;13.58;11.22;;;;;;;27.00;62.54;99750.80;1641081;81;21882;-54
2021/07/21 08:40:35;;;;;;;13.38;10.78;;;;;;;27.07;62.38;99751.81;1655611;80;21235;-54
2021/07/21 08:43:50;;;;;;;14.87;11.45;;;;;;;27.07;62.02;99753.22;1648536;79;21319;-55
2021/07/21 08:46:58;;;;;;;12.33;11.03;;;;;;;27.05;62.06;99753.52;1673660;79;21299;-55
2021/07/21 08:50:04;;;;;;;14.38;11.85;;;;;;;27.05;62.09;99759.14;1673084;80;21231;-55
2021/07/21 08:53:09;;;;;;;11.90;10.60;;;;;;;27.05;62.00;99751.30;1668035;79;21224;-59
2021/07/21 08:56:17;;;;;;;18.12;11.28;;;;;;;27.08;61.85;99751.55;1673148;79;21763;-59
2021/07/21 08:59:23;;;;;;;15.78;11.95;;;;;;;27.10;61.81;99754.87;1652790;78;21252;-59
2021/07/21 09:02:30;;;;;;;13.10;10.38;;;;;;;27.10;61.49;99748.44;1655218;80;21247;-61
2021/07/21 09:05:37;;;;;;;11.63;9.83;;;;;;;27.11;61.77;99750.94;1662935;82;21315;-60
2021/07/21 09:08:43;;;;;;;11.63;10.40;;;;;;;27.18;62.21;99754.21;1666154;81;21224;-62
2021/07/21 09:11:52;;;;;;;14.63;10.23;;;;;;;27.24;61.28;99755.00;1625174;81;21314;-64
2021/07/21 09:14:58;;;;;;;13.60;10.95;;;;;;;27.31;61.39;99750.71;1653490;79;21764;-61
2021/07/21 09:18:12;;;;;;;11.48;9.13;;;;;;;27.44;61.42;99743.52;1664270;79;21257;-62
2021/07/21 09:21:19;;;;;;;13.20;10.50;;;;;;;27.62;60.89;99739.31;1669836;81;22078;-62
2021/07/21 09:24:27;;;;;;;11.20;9.83;;;;;;;27.72;60.09;99741.14;1641422;81;21240;-61
2021/07/21 09:27:35;;;;;;;13.83;10.28;;;;;;;27.75;59.89;99741.94;1672174;82;22047;-62
2021/07/21 09:30:53;;;;;;;11.38;10.13;;;;;;;27.86;60.08;99743.45;1666914;81;21239;-59
2021/07/21 09:34:00;;;;;;;10.28;9.08;;;;;;;27.86;59.44;99737.27;1671732;82;21280;-61
2021/07/21 09:37:16;;;;;;;13.45;9.98;;;;;;;27.91;59.06;99735.57;1669640;82;21288;-61
2021/07/21 09:40:22;;;;;;;12.33;10.40;;;;;;;28.02;59.20;99724.41;1669877;80;21303;-63
2021/07/21 09:43:35;;;;;;;13.13;10.68;;;;;;;28.01;58.36;99725.54;1671159;80;21264;-61
2021/07/21 09:46:40;;;;;;;13.18;10.48;;;;;;;27.85;58.62;99710.84;1672255;80;21228;-62
2021/07/21 09:49:45;;;;;;;12.03;9.80;;;;;;;27.82;59.08;99702.46;1671026;80;21488;-62
2021/07/21 09:52:54;;;;;;;11.75;10.65;;;;;;;27.93;59.03;99693.87;1668339;82;21318;-61
2021/07/21 09:56:00;;;;;;;11.20;10.10;;;;;;;28.04;59.00;99686.92;1670802;80;21256;-62
2021/07/21 09:59:35;;;;;;;13.25;10.68;;;;;;;28.05;58.88;99680.17;1618263;81;21246;-62
2021/07/21 10:02:43;;;;;;;12.30;11.08;;;;;;;28.05;58.67;99675.36;1668750;80;21256;-61
2021/07/21 10:06:14;;;;;;;12.75;10.28;;;;;;;28.10;58.80;99666.83;1660921;80;21743;-60
2021/07/21 10:09:20;;;;;;;14.73;10.58;;;;;;;28.07;58.27;99658.20;1665903;80;21686;-60
2021/07/21 10:12:28;;;;;;;11.75;10.60;;;;;;;28.00;58.30;99649.30;1658901;81;21282;-60
2021/07/21 10:15:38;;;;;;;11.95;10.53;;;;;;;28.00;58.35;99636.63;1631656;80;21757;-61
2021/07/21 10:18:47;;;;;;;12.88;10.98;;;;;;;28.07;58.23;99632.86;1635471;80;21254;-60
2021/07/21 10:21:57;;;;;;;12.33;11.08;;;;;;;28.08;57.83;99631.71;1647253;81;21263;-61
2021/07/21 10:25:03;;;;;;;10.65;9.55;;;;;;;28.04;58.35;99623.60;1644930;80;21232;-60
2021/07/21 10:28:09;;;;;;;11.40;9.48;;;;;;;28.16;57.81;99622.00;1668683;80;21221;-59
2021/07/21 10:31:13;;;;;;;10.82;9.60;;;;;;;28.18;56.70;99614.05;1634308;81;21255;-59
2021/07/21 10:34:19;;;;;;;10.65;9.55;;;;;;;28.12;56.29;99618.67;1631279;82;21258;-61
2021/07/21 10:37:24;;;;;;;10.53;8.90;;;;;;;28.17;56.47;99624.22;1665875;79;21286;-60
2021/07/21 10:40:35;;;;;;;11.63;9.55;;;;;;;28.25;56.57;99629.14;1669184;82;21275;-61
2021/07/21 10:43:42;;;;;;;10.23;8.88;;;;;;;28.33;56.06;99631.23;1669936;80;21805;-60
2021/07/21 10:47:02;;;;;;;12.13;8.53;;;;;;;28.36;56.10;99626.39;1641417;81;21274;-58
2021/07/21 10:50:10;;;;;;;9.00;8.00;;;;;;;28.31;55.74;99630.70;1657658;79;21248;-60
2021/07/21 11:00:14;;;;;;;9.13;8.20;;;;;;;28.50;56.09;99627.27;1625112;81;21311;-62
2021/07/21 11:03:28;;;;;;;9.33;8.43;;;;;;;28.53;56.42;99623.27;1633531;81;21255;-64
2021/07/21 11:06:55;;;;;;;9.38;8.48;;;;;;;28.61;55.31;99623.11;1638679;82;21822;-64
2021/07/21 11:10:01;;;;;;;10.25;8.20;;;;;;;28.70;54.98;99620.66;1642530;80;21263;-60
2021/07/21 11:13:12;;;;;;;8.90;8.00;;;;;;;28.78;54.84;99614.89;1624973;80;21288;-62
2021/07/21 11:16:46;;;;;;;9.38;8.18;;;;;;;28.83;54.82;99607.70;1654873;80;21371;-61
2021/07/21 11:19:58;;;;;;;8.60;7.70;;;;;;;28.81;54.36;99605.80;1665878;80;21255;-63
2021/07/21 11:23:45;;;;;;;7.65;6.87;;;;;;;28.78;53.67;99600.80;1672491;80;21263;-60
2021/07/21 11:26:51;;;;;;;7.92;6.60;;;;;;;28.72;53.72;99604.84;1670329;80;21263;-63
2021/07/21 11:30:00;;;;;;;7.45;6.70;;;;;;;28.65;53.74;99598.25;1672473;80;21804;-62
2021/07/21 11:34:01;;;;;;;10.30;6.90;;;;;;;28.63;54.18;99600.53;1670293;80;21252;-62
2021/07/21 11:37:27;;;;;;;9.60;7.22;;;;;;;28.56;54.69;99593.06;1669247;80;21251;-62
2021/07/21 11:40:31;;;;;;;7.17;6.47;;;;;;;28.62;54.37;99590.40;1651205;81;22097;-62
2021/07/21 11:43:41;;;;;;;7.28;6.22;;;;;;;28.62;54.66;99595.22;1667881;79;21240;-63
2021/07/21 11:46:47;;;;;;;6.67;5.70;;;;;;;28.62;54.16;99594.63;1669276;79;21292;-62
2021/07/21 11:49:59;;;;;;;7.08;6.37;;;;;;;28.62;54.18;99598.84;1650311;80;21299;-62
2021/07/21 11:53:11;;;;;;;6.87;6.17;;;;;;;28.82;55.32;99591.41;1672757;79;21299;-62
2021/07/21 11:56:17;;;;;;;9.28;6.10;;;;;;;29.09;54.02;99591.39;1671362;79;21756;-62
2021/07/21 11:59:26;;;;;;;7.10;5.97;;;;;;;29.23;53.28;99585.14;1669052;81;21339;-63
2021/07/21 12:02:30;;;;;;;7.72;6.08;;;;;;;29.15;53.74;99594.35;1648590;81;21274;-63
2021/07/21 12:05:37;;;;;;;7.30;6.30;;;;;;;29.17;53.86;99592.06;1664563;79;21236;-63
2021/07/21 12:08:48;;;;;;;7.30;6.33;;;;;;;28.98;53.77;99589.08;1670140;80;21211;-61
2021/07/21 12:12:05;;;;;;;11.88;5.67;;;;;;;28.72;54.35;99585.97;1655020;79;21279;-62
2021/07/21 12:15:32;;;;;;;6.95;5.60;;;;;;;28.67;54.69;99588.08;1662330;81;21801;-63
2021/07/21 12:18:39;;;;;;;7.25;4.90;;;;;;;28.75;54.04;99587.31;1769885;78;21889;-63
2021/07/21 12:21:44;;;;;;;7.08;4.90;;;;;;;28.69;53.16;99584.34;1739253;79;21720;-63
2021/07/21 12:24:58;;;;;;;5.40;4.80;;;;;;;28.67;52.61;99591.70;1720258;79;21759;-64
2021/07/21 12:28:04;;;;;;;5.22;4.72;;;;;;;28.65;52.10;99586.14;1711841;79;22272;-63
2021/07/21 12:31:09;;;;;;;5.83;5.03;;;;;;;28.61;52.48;99583.11;1733784;80;21413;-62
2021/07/21 12:34:24;;;;;;;7.45;5.92;;;;;;;28.66;52.47;99584.98;1714003;81;21312;-62
2021/07/21 12:37:37;;;;;;;8.28;6.08;;;;;;;28.72;52.57;99579.48;1735840;82;21442;-62
2021/07/21 12:40:42;;;;;;;7.22;6.10;;;;;;;28.82;53.07;99582.95;1691573;83;22158;-63
2021/07/21 12:43:49;;;;;;;7.95;5.90;;;;;;;28.83;52.48;99576.72;1700810;83;21242;-62
2021/07/21 12:46:55;;;;;;;8.78;6.62;;;;;;;28.80;52.74;99568.89;1703931;82;21582;-62
2021/07/21 12:50:03;;;;;;;7.67;6.10;;;;;;;28.81;52.88;99568.58;1702430;81;21851;-64
2021/07/21 12:53:20;;;;;;;7.40;6.65;;;;;;;28.86;53.21;99569.06;1731763;80;21207;-63
2021/07/21 12:56:27;;;;;;;8.63;6.35;;;;;;;28.87;53.61;99567.91;1762438;80;22203;-63
2021/07/21 12:59:45;;;;;;;8.28;6.30;;;;;;;28.95;53.56;99565.75;1723641;81;21206;-64
2021/07/21 13:03:15;;;;;;;8.93;6.17;;;;;;;28.99;53.37;99561.14;1735732;78;21256;-63
2021/07/21 13:06:31;;;;;;;8.25;6.30;;;;;;;29.04;53.13;99553.98;1730446;81;21205;-64
2021/07/21 13:09:35;;;;;;;8.33;6.28;;;;;;;29.07;53.40;99557.04;1732142;82;21258;-62
2021/07/21 13:12:42;;;;;;;9.65;7.30;;;;;;;29.12;52.92;99551.85;1743621;79;21192;-61
2021/07/21 13:15:47;;;;;;;11.90;7.05;;;;;;;29.14;52.21;99550.38;1713380;80;21236;-62
2021/07/21 13:18:56;;;;;;;9.70;7.37;;;;;;;29.17;52.78;99546.95;1755897;79;21211;-65
2021/07/21 13:22:02;;;;;;;8.68;7.50;;;;;;;29.25;51.99;99550.98;1711171;81;21288;-66
2021/07/21 13:25:20;;;;;;;8.33;7.22;;;;;;;29.24;51.81;99554.94;1691760;79;21804;-63
2021/07/21 13:28:35;;;;;;;8.65;6.40;;;;;;;29.18;51.82;99557.06;1726080;81;21271;-63
2021/07/21 13:31:46;;;;;;;8.38;6.05;;;;;;;29.18;51.82;99557.06;1718059;80;21367;-66
2021/07/21 13:34:52;;;;;;;8.28;5.95;;;;;;;29.03;51.32;99548.09;1693530;82;21270;-63
2021/07/21 13:38:05;;;;;;;7.65;5.67;;;;;;;28.98;51.36;99548.20;1725095;79;21211;-61
2021/07/21 13:41:15;;;;;;;6.30;5.50;;;;;;;29.05;51.44;99554.26;1747529;78;21728;-59
2021/07/21 13:44:27;;;;;;;6.05;4.83;;;;;;;29.19;51.01;99562.13;1771597;78;21246;-60
2021/07/21 13:47:44;;;;;;;;;;;;;;;29.26;50.30;99563.11;1767744;79;21242;-61
2021/07/21 13:50:49;;;;;;;6.67;4.35;;;;;;;29.16;49.79;99563.58;1761815;79;20429;-63
2021/07/21 13:53:55;;;;;;;5.55;4.55;;;;;;;29.01;50.32;99558.84;1728979;79;21422;-62
2021/07/21 13:57:04;;;;;;;5.62;4.65;;;;;;;28.88;50.67;99564.77;1769781;78;21389;-59
2021/07/21 14:00:09;;;;;;;5.30;4.25;;;;;;;28.80;51.62;99571.71;1736861;80;21164;-62
2021/07/21 14:03:14;;;;;;;4.55;4.00;;;;;;;28.76;52.26;99581.95;1695855;81;21217;-61
2021/07/21 14:06:22;;;;;;;4.40;3.80;;;;;;;28.71;52.08;99587.69;1707046;81;22158;-61
2021/07/21 14:09:29;;;;;;;5.70;3.80;;;;;;;28.65;52.45;99577.13;1767383;78;21179;-60
2021/07/21 14:12:36;;;;;;;7.35;3.90;;;;;;;28.66;52.21;99583.00;1754056;79;21274;-60
2021/07/21 14:15:42;;;;;;;5.25;3.92;;;;;;;28.56;52.38;99573.94;1746151;80;21243;-61
2021/07/21 14:18:48;;;;;;;6.10;4.53;;;;;;;28.43;52.80;99568.51;1735951;81;21779;-62
2021/07/21 14:21:56;;;;;;;5.97;4.95;;;;;;;28.29;53.24;99571.08;1740790;80;21275;-61
2021/07/21 14:25:01;;;;;;;8.85;5.17;;;;;;;28.09;54.08;99578.48;1738497;80;21263;-60
2021/07/21 14:28:07;;;;;;;6.78;5.40;;;;;;;27.86;54.42;99588.70;1740093;81;21821;-62
2021/07/21 14:31:13;;;;;;;8.70;5.37;;;;;;;27.69;55.05;99587.89;1708575;82;21245;-62
2021/07/21 14:34:23;;;;;;;8.18;5.10;;;;;;;27.64;55.34;99579.53;1734541;81;21315;-58
2021/07/21 14:37:30;;;;;;;7.50;5.45;;;;;;;27.74;55.33;99581.34;1725642;81;21223;-59
2021/07/21 14:40:35;;;;;;;7.03;4.95;;;;;;;27.93;54.85;99592.56;1751174;80;21214;-61
2021/07/21 14:43:43;;;;;;;5.90;4.50;;;;;;;28.03;53.87;99592.39;1751045;80;21238;-59
2021/07/21 14:46:49;;;;;;;5.90;4.80;;;;;;;28.01;52.79;99596.92;1742119;78;21247;-56
2021/07/21 14:49:55;;;;;;;7.50;4.80;;;;;;;27.96;52.89;99598.98;1746039;80;21274;-62
2021/07/21 14:53:00;;;;;;;6.05;4.42;;;;;;;27.92;53.17;99597.94;1740488;79;21201;-65